Time;durP1;ratioP1;P1;durP2;ratioP2;P2;SDS_P1;SDS_P2;PMS_P1;PMS_P2;Temp;Humidity;BMP_temperature;BMP_pressure;BME280_temperature;BME280_humidity;BME280_pressure;Samples;Min_cycle;Max_cycle;Signal;HPM_P1;HPM_P2
2021/12/13 00:02:18;;;;;;;4.50;2.80;;;5.60;71.20;;;;;;5091673;28;20294;-76
2021/12/13 00:04:56;;;;;;;4.50;3.53;;;5.70;71.10;;;;;;5092147;28;20212;-74
2021/12/13 00:07:26;;;;;;;6.28;3.80;;;5.70;71.40;;;;;;5091223;28;20695;-75
2021/12/13 00:09:56;;;;;;;4.55;3.15;;;5.60;71.60;;;;;;5091952;28;20193;-74
2021/12/13 00:12:28;;;;;;;4.35;3.15;;;5.70;72.10;;;;;;5091548;28;20235;-74
2021/12/13 00:15:03;;;;;;;5.28;4.40;;;5.70;72.10;;;;;;5092441;28;20530;-74
2021/12/13 00:17:39;;;;;;;6.18;2.90;;;5.60;72.00;;;;;;5091617;28;20255;-74
2021/12/13 00:20:27;;;;;;;5.28;3.45;;;5.60;72.00;;;;;;5091567;28;20193;-74
2021/12/13 00:22:56;;;;;;;5.50;3.20;;;5.60;71.80;;;;;;5091902;28;20182;-75
2021/12/13 00:25:32;;;;;;;4.95;2.83;;;5.60;71.80;;;;;;5091517;28;20192;-74
2021/12/13 00:28:06;;;;;;;5.03;3.85;;;5.50;71.60;;;;;;5091714;28;20702;-75
2021/12/13 00:30:53;;;;;;;6.13;3.70;;;5.40;72.70;;;;;;5091217;28;20280;-74
2021/12/13 00:33:37;;;;;;;6.30;3.40;;;5.40;73.10;;;;;;5092566;28;20197;-74
2021/12/13 00:36:16;;;;;;;4.97;3.65;;;5.30;73.20;;;;;;5095193;28;20597;-73
2021/12/13 00:38:48;;;;;;;7.55;4.45;;;5.20;74.30;;;;;;5095905;28;20201;-74
2021/12/13 00:41:22;;;;;;;6.25;3.40;;;5.20;74.40;;;;;;5095202;28;20213;-73
2021/12/13 00:43:54;;;;;;;7.15;4.20;;;5.20;74.40;;;;;;5095351;28;20189;-74
2021/12/13 00:46:28;;;;;;;8.55;3.72;;;5.30;74.70;;;;;;5095231;28;20193;-75
2021/12/13 00:49:00;;;;;;;7.75;4.40;;;5.30;74.80;;;;;;5095031;28;20189;-74
2021/12/13 00:51:31;;;;;;;7.13;4.78;;;5.40;74.90;;;;;;5095551;28;20196;-74
2021/12/13 00:54:08;;;;;;;7.97;4.28;;;5.40;75.00;;;;;;5094946;28;20181;-75
2021/12/13 00:57:05;;;;;;;7.22;4.65;;;5.40;75.00;;;;;;5095129;28;20185;-74
2021/12/13 00:59:36;;;;;;;5.05;3.15;;;5.40;75.20;;;;;;5095264;28;20190;-74
2021/12/13 01:02:08;;;;;;;4.85;3.22;;;5.40;75.40;;;;;;5094548;28;20205;-74
2021/12/13 01:05:01;;;;;;;4.45;2.83;;;5.30;75.70;;;;;;5095466;28;20674;-74
2021/12/13 01:08:05;;;;;;;5.93;2.97;;;5.30;76.00;;;;;;5095019;28;20250;-77
2021/12/13 01:11:05;;;;;;;5.30;2.72;;;5.30;76.90;;;;;;5094535;28;20211;-75
2021/12/13 01:13:38;;;;;;;3.33;1.90;;;5.20;77.00;;;;;;5086851;28;20189;-74
2021/12/13 01:16:19;;;;;;;3.38;2.00;;;5.20;77.10;;;;;;5095423;28;20221;-74
2021/12/13 01:19:03;;;;;;;3.50;2.10;;;5.20;77.60;;;;;;5095012;28;20192;-73
2021/12/13 01:21:43;;;;;;;3.53;2.58;;;5.20;78.30;;;;;;5093847;28;20231;-75
2021/12/13 01:24:30;;;;;;;2.42;1.38;;;5.20;79.00;;;;;;5094438;28;20185;-75
2021/12/13 01:27:01;;;;;;;3.45;1.80;;;5.20;79.60;;;;;;5094716;28;20268;-74
2021/12/13 01:29:29;;;;;;;2.70;1.60;;;5.20;80.30;;;;;;5094245;28;20272;-74
2021/12/13 01:31:59;;;;;;;4.35;2.63;;;5.30;80.80;;;;;;5094423;28;20190;-74
2021/12/13 01:34:29;;;;;;;4.45;2.92;;;5.20;80.80;;;;;;5094234;28;20182;-74
2021/12/13 01:37:07;;;;;;;5.20;2.67;;;5.20;81.30;;;;;;5094360;28;20258;-74
2021/12/13 01:39:40;;;;;;;3.28;2.10;;;5.20;81.40;;;;;;5094629;28;20185;-74
2021/12/13 01:42:11;;;;;;;3.20;2.05;;;5.20;82.10;;;;;;5094320;28;20266;-75
2021/12/13 01:44:44;;;;;;;3.00;1.67;;;5.20;82.50;;;;;;5093866;28;20189;-74
2021/12/13 01:47:13;;;;;;;3.25;2.13;;;5.20;82.70;;;;;;5093678;28;20217;-76
2021/12/13 01:49:43;;;;;;;2.63;1.40;;;5.30;82.80;;;;;;5094481;28;20196;-74
2021/12/13 01:52:18;;;;;;;2.67;1.45;;;5.30;83.70;;;;;;5093988;28;20181;-74
2021/12/13 01:54:46;;;;;;;2.20;1.20;;;5.40;83.00;;;;;;5094240;28;20572;-75
2021/12/13 01:57:24;;;;;;;2.00;1.13;;;5.40;83.70;;;;;;5094128;28;20200;-76
2021/12/13 01:59:56;;;;;;;2.47;1.55;;;5.40;83.80;;;;;;5094376;28;20216;-74
2021/12/13 02:02:28;;;;;;;2.47;1.48;;;5.30;84.30;;;;;;5093435;28;20213;-75
2021/12/13 02:05:00;;;;;;;2.75;1.75;;;5.30;85.30;;;;;;5094277;28;20217;-74
2021/12/13 02:07:37;;;;;;;3.25;1.20;;;5.20;86.30;;;;;;5093647;28;20534;-74
2021/12/13 02:10:09;;;;;;;2.20;1.38;;;5.10;87.80;;;;;;5094156;28;20238;-75
2021/12/13 02:12:42;;;;;;;3.72;1.75;;;5.00;90.00;;;;;;5093688;28;20185;-74
2021/12/13 02:17:58;;;;;;;2.33;1.40;;;4.90;90.70;;;;;;5093485;28;20188;-74
2021/12/13 02:20:32;;;;;;;2.97;1.20;;;5.00;91.10;;;;;;5094077;28;20205;-75
2021/12/13 02:23:09;;;;;;;2.28;1.40;;;5.10;91.20;;;;;;5092690;28;20216;-75
2021/12/13 02:25:39;;;;;;;1.75;1.00;;;5.20;91.10;;;;;;5093954;28;20196;-75
2021/12/13 02:28:14;;;;;;;2.05;1.13;;;5.30;91.10;;;;;;5093203;28;20557;-75
2021/12/13 02:30:47;;;;;;;1.73;1.00;;;5.30;91.20;;;;;;5093717;28;20197;-75
2021/12/13 02:33:19;;;;;;;2.95;1.20;;;5.30;91.50;;;;;;5093207;28;20192;-75
2021/12/13 02:35:49;;;;;;;2.13;0.90;;;5.40;91.50;;;;;;5093223;28;20705;-76
2021/12/13 02:38:19;;;;;;;2.90;1.10;;;5.50;91.50;;;;;;5093656;28;20520;-74
2021/12/13 02:40:46;;;;;;;2.92;1.00;;;5.50;91.40;;;;;;5092819;28;20648;-76
2021/12/13 02:43:17;;;;;;;3.15;1.42;;;5.60;91.40;;;;;;5093302;28;20244;-75
2021/12/13 02:45:48;;;;;;;2.10;1.20;;;5.70;91.30;;;;;;5093091;28;20185;-75
2021/12/13 02:48:22;;;;;;;2.13;1.10;;;5.70;91.10;;;;;;5093232;28;20698;-74
2021/12/13 02:50:55;;;;;;;2.38;1.33;;;5.80;90.90;;;;;;5092788;28;20640;-74
2021/12/13 02:53:31;;;;;;;2.00;1.30;;;5.80;90.60;;;;;;5093147;28;20689;-74
2021/12/13 02:55:59;;;;;;;2.38;1.15;;;5.80;90.50;;;;;;5092353;28;20193;-75
2021/12/13 02:58:30;;;;;;;2.42;1.20;;;5.90;90.30;;;;;;5093146;28;20189;-75
2021/12/13 03:01:02;;;;;;;2.10;1.20;;;5.90;90.20;;;;;;5092736;28;20243;-75
2021/12/13 03:03:38;;;;;;;2.67;1.08;;;5.90;90.10;;;;;;5092897;28;20266;-75
2021/12/13 03:06:10;;;;;;;2.05;0.85;;;5.90;90.00;;;;;;5092472;28;20193;-75
2021/12/13 03:08:44;;;;;;;2.00;1.20;;;5.90;90.00;;;;;;5092800;28;20254;-75
2021/12/13 03:11:22;;;;;;;1.90;1.08;;;5.90;89.90;;;;;;5092492;28;20581;-74
2021/12/13 03:13:55;;;;;;;2.17;1.20;;;5.90;89.70;;;;;;5092664;28;20550;-74
2021/12/13 03:16:28;;;;;;;2.70;1.20;;;5.90;89.80;;;;;;5092583;28;20192;-75
2021/12/13 03:19:01;;;;;;;2.03;1.10;;;5.90;89.80;;;;;;5092450;28;20188;-75
2021/12/13 03:22:12;;;;;;;2.45;1.20;;;5.90;90.00;;;;;;5092755;28;20192;-74
2021/12/13 03:25:02;;;;;;;1.88;1.33;;;5.90;89.80;;;;;;5092542;28;20268;-75
2021/12/13 03:27:38;;;;;;;4.15;1.70;;;5.90;90.00;;;;;;5092581;28;20591;-74
2021/12/13 03:30:08;;;;;;;1.95;1.10;;;5.90;90.00;;;;;;5092188;28;20193;-75
2021/12/13 03:32:41;;;;;;;3.47;1.90;;;6.00;90.20;;;;;;5092365;28;20253;-74
2021/12/13 03:35:13;;;;;;;2.50;1.92;;;5.90;90.10;;;;;;5092731;28;20207;-75
2021/12/13 03:37:43;;;;;;;2.88;1.40;;;5.80;90.20;;;;;;5092222;28;20185;-73
2021/12/13 03:40:16;;;;;;;2.55;1.55;;;5.80;90.70;;;;;;5092559;28;20235;-74
2021/12/13 03:42:47;;;;;;;2.75;1.63;;;5.80;90.40;;;;;;5092311;28;20305;-74
2021/12/13 03:45:19;;;;;;;3.83;1.80;;;5.80;90.30;;;;;;5092028;28;20190;-75
2021/12/13 03:47:50;;;;;;;2.35;1.50;;;5.80;90.60;;;;;;5092559;28;20189;-75
2021/12/13 03:50:22;;;;;;;2.20;1.40;;;5.80;90.50;;;;;;5091888;28;20268;-74
2021/12/13 03:52:53;;;;;;;2.83;1.27;;;5.80;90.30;;;;;;5092358;28;20185;-74
2021/12/13 03:55:25;;;;;;;2.20;1.48;;;5.80;90.30;;;;;;5091825;28;20208;-74
2021/12/13 03:57:54;;;;;;;3.35;1.30;;;5.80;90.30;;;;;;5092245;28;20200;-75
2021/12/13 04:00:26;;;;;;;3.35;1.35;;;5.90;90.20;;;;;;5091904;28;20193;-77
2021/12/13 04:02:54;;;;;;;2.95;1.90;;;5.90;90.20;;;;;;5092372;28;20221;-75
2021/12/13 04:05:24;;;;;;;3.08;2.10;;;5.90;90.20;;;;;;5091855;28;20193;-75
2021/12/13 04:07:53;;;;;;;2.38;2.17;;;5.90;90.20;;;;;;5092356;28;20197;-75
2021/12/13 04:10:25;;;;;;;2.72;2.03;;;5.90;90.10;;;;;;5095953;28;20214;-74
2021/12/13 04:12:56;;;;;;;4.47;2.03;;;5.90;90.10;;;;;;5096290;28;20193;-76
2021/12/13 04:15:32;;;;;;;3.42;2.40;;;5.90;90.00;;;;;;5076388;28;20226;-74
2021/12/13 04:18:12;;;;;;;2.90;2.60;;;5.90;90.10;;;;;;5076619;28;20292;-75
2021/12/13 04:20:44;;;;;;;3.17;2.65;;;6.00;90.20;;;;;;5096693;28;20284;-75
2021/12/13 04:23:15;;;;;;;3.45;2.53;;;5.90;90.40;;;;;;5096043;28;20307;-73
2021/12/13 04:25:47;;;;;;;3.67;3.17;;;6.00;90.40;;;;;;5096567;28;20186;-76
2021/12/13 04:28:20;;;;;;;3.35;2.10;;;6.00;90.30;;;;;;5095802;28;20307;-76
2021/12/13 04:30:50;;;;;;;3.58;2.63;;;6.00;90.30;;;;;;5096480;28;20601;-73
2021/12/13 04:33:23;;;;;;;3.40;2.08;;;6.00;90.20;;;;;;5095396;28;20186;-75
2021/12/13 04:35:56;;;;;;;3.15;1.88;;;6.00;90.20;;;;;;5096122;28;20194;-74
2021/12/13 04:38:31;;;;;;;4.90;3.40;;;6.00;90.10;;;;;;5095693;28;20582;-75
2021/12/13 04:41:01;;;;;;;5.43;3.78;;;5.90;90.10;;;;;;5075944;28;20186;-75
2021/12/13 04:43:28;;;;;;;7.50;3.40;;;5.90;90.00;;;;;;5076699;28;20734;-75
2021/12/13 04:45:59;;;;;;;5.30;4.72;;;5.90;90.10;;;;;;5095982;28;20228;-75
2021/12/13 04:48:30;;;;;;;5.63;3.60;;;5.90;90.10;;;;;;5095376;28;20258;-75
2021/12/13 04:51:04;;;;;;;6.55;4.15;;;5.90;90.20;;;;;;5095893;28;20698;-75
2021/12/13 04:53:33;;;;;;;9.52;5.60;;;5.90;90.30;;;;;;5095227;28;20190;-76
2021/12/13 04:56:06;;;;;;;8.90;4.53;;;5.90;90.40;;;;;;5095745;28;20274;-75
2021/12/13 04:58:34;;;;;;;5.10;3.17;;;5.90;90.20;;;;;;5095315;28;20668;-75
2021/12/13 05:01:05;;;;;;;6.07;2.30;;;5.90;90.10;;;;;;5095718;28;20185;-75
2021/12/13 05:03:35;;;;;;;4.22;3.15;;;5.90;90.00;;;;;;5095256;28;20221;-75
2021/12/13 05:06:07;;;;;;;6.13;4.55;;;5.90;90.10;;;;;;5095654;28;20618;-74
2021/12/13 05:08:38;;;;;;;8.10;5.10;;;5.80;90.20;;;;;;5095042;28;20654;-74
2021/12/13 05:11:12;;;;;;;8.80;5.07;;;5.80;90.30;;;;;;5095642;28;20193;-74
2021/12/13 05:13:45;;;;;;;6.45;4.57;;;5.70;90.60;;;;;;5094917;28;20549;-74
2021/12/13 05:16:14;;;;;;;6.15;5.07;;;5.70;90.60;;;;;;5095180;28;20597;-74
2021/12/13 05:18:46;;;;;;;7.70;5.97;;;5.70;90.60;;;;;;5095277;28;20200;-74
2021/12/13 05:21:17;;;;;;;7.57;5.43;;;5.70;90.60;;;;;;5095005;28;20268;-75
2021/12/13 05:23:51;;;;;;;7.45;5.75;;;5.70;90.80;;;;;;5094990;28;20221;-75
2021/12/13 05:26:31;;;;;;;6.60;4.82;;;5.70;90.70;;;;;;5094210;28;20228;-74
2021/12/13 05:29:00;;;;;;;3.10;2.47;;;5.60;90.80;;;;;;5095258;28;20546;-75
2021/12/13 05:31:28;;;;;;;3.50;2.65;;;5.60;90.70;;;;;;5094477;28;20720;-76
2021/12/13 05:34:00;;;;;;;5.35;4.25;;;5.60;91.00;;;;;;5094527;28;20239;-74
2021/12/13 05:36:36;;;;;;;5.25;3.95;;;5.50;91.20;;;;;;5094725;28;20192;-74
2021/12/13 05:39:09;;;;;;;4.88;4.38;;;5.50;91.40;;;;;;5095029;28;20242;-75
2021/12/13 05:41:40;;;;;;;4.18;3.78;;;5.50;91.60;;;;;;5094460;28;20192;-74
2021/12/13 05:44:10;;;;;;;4.72;4.22;;;5.50;91.70;;;;;;5094680;28;20227;-75
2021/12/13 05:46:41;;;;;;;6.28;3.78;;;5.60;91.80;;;;;;5094236;28;20623;-75
2021/12/13 05:49:11;;;;;;;5.18;4.00;;;5.60;91.80;;;;;;5094848;28;20189;-75
2021/12/13 05:51:42;;;;;;;7.15;3.70;;;5.60;91.80;;;;;;5094455;28;20190;-75
2021/12/13 05:54:12;;;;;;;6.38;4.57;;;5.70;91.80;;;;;;5094708;28;20185;-75
2021/12/13 05:56:44;;;;;;;5.25;4.20;;;5.80;91.80;;;;;;5093994;28;20186;-75
2021/12/13 05:59:16;;;;;;;18.05;12.07;;;5.70;91.70;;;;;;5094716;28;20567;-75
2021/12/13 06:01:59;;;;;;;19.25;12.30;;;5.70;92.00;;;;;;5093738;28;20184;-77
2021/12/13 06:04:35;;;;;;;16.20;9.90;;;5.70;91.90;;;;;;5094333;28;20225;-75
2021/12/13 06:07:11;;;;;;;11.07;8.02;;;5.70;92.10;;;;;;5094173;28;20227;-75
2021/12/13 06:09:55;;;;;;;8.23;6.45;;;5.80;92.10;;;;;;5094642;28;20286;-75
2021/12/13 06:12:36;;;;;;;10.10;7.30;;;5.80;92.00;;;;;;5094015;28;20208;-74
2021/12/13 06:15:21;;;;;;;6.63;5.88;;;5.90;92.00;;;;;;5094158;28;20197;-75
2021/12/13 06:17:54;;;;;;;6.28;4.97;;;5.90;91.90;;;;;;5073982;28;20201;-74
2021/12/13 06:20:25;;;;;;;6.18;5.28;;;5.90;92.20;;;;;;5074705;28;20222;-74
2021/12/13 06:23:05;;;;;;;7.63;5.57;;;5.90;91.90;;;;;;5093940;28;20225;-74
2021/12/13 06:25:33;;;;;;;6.93;5.30;;;6.00;91.70;;;;;;5093545;28;20242;-75
2021/12/13 06:28:04;;;;;;;4.43;3.30;;;6.00;91.50;;;;;;5093734;28;20229;-75
2021/12/13 06:30:33;;;;;;;5.25;3.30;;;6.00;91.30;;;;;;5089954;28;20229;-75
2021/12/13 06:33:02;;;;;;;4.75;2.88;;;6.00;90.90;;;;;;5090920;28;20197;-75
2021/12/13 06:35:40;;;;;;;3.78;3.30;;;6.00;90.70;;;;;;5087363;28;20185;-74
2021/12/13 06:38:48;;;;;;;4.47;3.42;;;5.90;90.60;;;;;;5087909;28;20196;-75
2021/12/13 06:41:19;;;;;;;4.45;3.53;;;5.90;90.60;;;;;;5085568;28;20242;-76
2021/12/13 06:43:51;;;;;;;4.80;3.38;;;5.90;90.60;;;;;;5090496;28;20209;-75
2021/12/13 06:46:51;;;;;;;5.35;3.00;;;5.90;90.60;;;;;;5090387;28;20243;-75
2021/12/13 06:49:24;;;;;;;3.95;3.05;;;5.80;90.70;;;;;;5090873;28;20190;-75
2021/12/13 06:51:54;;;;;;;4.32;3.38;;;5.80;90.70;;;;;;5091892;28;20189;-75
2021/12/13 06:54:29;;;;;;;12.02;6.13;;;5.80;90.60;;;;;;5091459;28;20284;-74
2021/12/13 06:57:00;;;;;;;5.85;3.35;;;5.80;90.50;;;;;;5087302;28;20273;-74
2021/12/13 06:59:31;;;;;;;5.40;3.80;;;5.70;90.10;;;;;;5091796;28;20651;-75
2021/12/13 07:02:03;;;;;;;4.35;3.10;;;5.70;90.00;;;;;;5090755;28;20217;-75
2021/12/13 07:04:40;;;;;;;5.60;3.15;;;5.70;90.20;;;;;;5091499;28;20263;-74
2021/12/13 07:07:12;;;;;;;6.20;3.75;;;5.70;90.30;;;;;;5090811;28;20191;-75
2021/12/13 07:09:40;;;;;;;5.05;3.45;;;5.70;90.50;;;;;;5091210;28;20644;-74
2021/12/13 07:12:17;;;;;;;5.65;3.00;;;5.70;90.70;;;;;;5091644;28;20259;-74
2021/12/13 07:14:48;;;;;;;5.45;3.60;;;5.70;90.90;;;;;;5091658;28;20606;-74
2021/12/13 07:17:18;;;;;;;6.93;4.05;;;5.70;91.10;;;;;;5090998;28;20243;-74
2021/12/13 07:19:50;;;;;;;6.60;4.90;;;5.70;91.20;;;;;;5091505;28;20284;-75
2021/12/13 07:22:24;;;;;;;5.15;4.55;;;5.80;91.40;;;;;;5086883;28;20209;-75
2021/12/13 07:24:54;;;;;;;8.20;5.72;;;5.80;91.50;;;;;;5086951;28;20209;-76
2021/12/13 07:27:24;;;;;;;8.32;6.43;;;5.80;91.50;;;;;;5089020;28;20209;-75
2021/12/13 07:29:56;;;;;;;11.77;8.88;;;5.90;91.60;;;;;;5090763;28;20217;-76
2021/12/13 07:32:27;;;;;;;10.60;8.20;;;5.90;91.50;;;;;;5089566;28;20217;-77
2021/12/13 07:35:05;;;;;;;10.63;7.00;;;5.90;91.50;;;;;;5084491;28;20198;-74
2021/12/13 07:37:43;;;;;;;13.35;9.48;;;6.00;91.40;;;;;;5088148;28;20741;-75
2021/12/13 07:40:24;;;;;;;10.63;8.50;;;6.00;91.20;;;;;;5089003;28;20219;-74
2021/12/13 07:42:57;;;;;;;17.52;11.73;;;6.10;91.20;;;;;;5089799;28;20592;-74
2021/12/13 07:45:30;;;;;;;15.50;10.80;;;6.10;91.20;;;;;;5090455;28;20520;-75
2021/12/13 07:47:59;;;;;;;19.70;10.32;;;6.10;91.20;;;;;;5090263;28;20639;-75
2021/12/13 07:50:27;;;;;;;16.27;8.43;;;6.20;91.10;;;;;;5089981;28;20192;-75
2021/12/13 07:52:58;;;;;;;11.65;9.65;;;6.20;91.00;;;;;;5090160;28;20276;-75
2021/12/13 07:55:29;;;;;;;12.40;9.20;;;6.10;91.00;;;;;;5090588;28;20197;-74
2021/12/13 07:57:58;;;;;;;16.63;9.50;;;6.20;91.00;;;;;;5090702;28;20193;-74
2021/12/13 08:00:31;;;;;;;9.60;7.88;;;6.20;91.00;;;;;;5090597;28;20198;-75
2021/12/13 08:03:01;;;;;;;11.20;7.90;;;6.20;91.10;;;;;;5090157;28;20225;-75
2021/12/13 08:05:32;;;;;;;10.65;7.60;;;6.20;91.00;;;;;;5086912;28;20190;-76
2021/12/13 08:08:02;;;;;;;10.50;8.38;;;6.20;91.00;;;;;;5090631;28;20228;-75
2021/12/13 08:10:33;;;;;;;9.73;8.57;;;6.20;91.00;;;;;;5090504;28;20289;-75
2021/12/13 08:13:05;;;;;;;9.25;7.97;;;6.10;90.80;;;;;;5086837;28;20276;-75
2021/12/13 08:15:40;;;;;;;8.73;6.57;;;6.10;90.80;;;;;;5088835;28;20190;-75
2021/12/13 08:18:10;;;;;;;8.95;7.68;;;6.20;90.90;;;;;;5086034;28;20189;-75
2021/12/13 08:20:45;;;;;;;8.45;7.43;;;6.20;90.90;;;;;;5090056;28;21043;-75
2021/12/13 08:23:17;;;;;;;9.50;7.10;;;6.30;91.00;;;;;;5089960;28;20185;-73
2021/12/13 08:25:46;;;;;;;7.72;6.72;;;6.30;91.10;;;;;;5090465;28;20186;-74
2021/12/13 08:28:15;;;;;;;6.50;5.70;;;6.30;91.10;;;;;;5089957;28;20296;-75
2021/12/13 08:30:49;;;;;;;8.55;6.20;;;6.40;91.20;;;;;;5089736;28;20530;-75
2021/12/13 08:33:19;;;;;;;7.78;6.57;;;6.40;91.30;;;;;;5090502;28;20245;-75
2021/12/13 08:35:49;;;;;;;9.10;6.43;;;6.40;91.00;;;;;;5089913;28;20185;-75
2021/12/13 08:38:33;;;;;;;15.63;7.43;;;6.40;90.60;;;;;;5086355;28;20203;-74
2021/12/13 08:41:05;;;;;;;8.90;6.65;;;6.40;90.50;;;;;;5090026;28;20713;-75
2021/12/13 08:43:41;;;;;;;8.50;6.68;;;6.40;90.20;;;;;;5086802;28;20236;-75
2021/12/13 08:46:12;;;;;;;9.07;6.65;;;6.40;89.70;;;;;;5090258;28;20189;-74
2021/12/13 08:48:47;;;;;;;7.72;6.57;;;6.30;89.40;;;;;;5086048;28;20197;-74
2021/12/13 08:51:22;;;;;;;7.82;6.90;;;6.30;89.40;;;;;;5090644;28;20567;-74
2021/12/13 08:53:59;;;;;;;8.60;6.22;;;6.20;90.20;;;;;;5086021;28;20199;-75
2021/12/13 08:56:30;;;;;;;9.80;7.65;;;6.20;90.50;;;;;;5093570;28;20547;-74
2021/12/13 08:59:03;;;;;;;7.13;6.43;;;6.20;90.70;;;;;;5093792;28;20279;-75
2021/12/13 09:01:58;;;;;;;9.32;8.18;;;6.30;90.60;;;;;;5093892;28;20194;-74
2021/12/13 09:04:29;;;;;;;9.27;8.30;;;6.30;90.80;;;;;;5089009;28;20220;-75
2021/12/13 09:07:01;;;;;;;8.85;7.82;;;6.40;91.00;;;;;;5093890;28;20194;-75
2021/12/13 09:09:29;;;;;;;12.57;9.95;;;6.40;91.20;;;;;;5093275;28;20217;-73
2021/12/13 09:12:00;;;;;;;12.43;10.77;;;6.50;91.20;;;;;;5093896;28;20216;-75
2021/12/13 09:14:38;;;;;;;12.40;10.35;;;6.60;91.20;;;;;;5093088;28;20181;-75
2021/12/13 09:17:16;;;;;;;12.75;11.43;;;6.70;91.30;;;;;;5089439;28;20193;-75
2021/12/13 09:20:00;;;;;;;13.73;12.20;;;6.80;91.30;;;;;;5093215;28;20185;-75
2021/12/13 09:22:31;;;;;;;16.40;13.30;;;6.90;91.30;;;;;;5093485;28;20208;-74
2021/12/13 09:25:01;;;;;;;14.77;13.02;;;7.00;91.30;;;;;;5092895;28;20213;-74
2021/12/13 09:27:38;;;;;;;17.48;15.68;;;7.10;90.90;;;;;;5089603;28;20213;-75
2021/12/13 09:30:21;;;;;;;22.73;17.80;;;7.10;90.70;;;;;;5092016;28;20240;-75
2021/12/13 09:32:55;;;;;;;27.52;20.42;;;7.10;90.90;;;;;;5091441;28;20185;-75
2021/12/13 09:35:34;;;;;;;34.75;24.92;;;7.20;90.90;;;;;;5092007;28;20239;-76
2021/12/13 09:38:19;;;;;;;28.73;21.15;;;7.30;90.80;;;;;;5093416;28;21501;-74
2021/12/13 09:40:53;;;;;;;20.00;16.05;;;7.30;90.60;;;;;;5092134;28;20612;-75
2021/12/13 09:43:22;;;;;;;20.40;14.77;;;7.40;90.70;;;;;;5093142;28;20265;-76
2021/12/13 09:45:54;;;;;;;11.65;10.45;;;7.50;90.60;;;;;;5092057;28;20189;-75
2021/12/13 09:48:27;;;;;;;12.80;10.57;;;7.50;90.30;;;;;;5093146;28;20197;-75
2021/12/13 09:51:00;;;;;;;10.82;9.68;;;7.60;90.40;;;;;;5092706;28;20200;-74
2021/12/13 09:53:31;;;;;;;11.98;7.57;;;7.80;90.30;;;;;;5088793;28;20243;-75
2021/12/13 09:56:02;;;;;;;5.43;4.65;;;7.90;90.00;;;;;;5092456;28;20213;-75
2021/12/13 09:58:38;;;;;;;7.95;5.50;;;8.10;90.00;;;;;;5092489;28;20189;-75
2021/12/13 10:01:11;;;;;;;7.03;5.60;;;8.20;89.80;;;;;;5092235;28;20635;-75
2021/12/13 10:03:51;;;;;;;4.70;3.85;;;8.50;89.80;;;;;;5091858;28;20633;-75
2021/12/13 10:06:22;;;;;;;5.00;3.75;;;8.60;89.20;;;;;;5092083;28;20668;-75
2021/12/13 10:08:57;;;;;;;3.70;3.17;;;8.70;89.20;;;;;;5092321;28;20580;-76
2021/12/13 10:11:28;;;;;;;4.82;3.95;;;8.90;88.00;;;;;;5092432;28;20281;-76
2021/12/13 10:13:57;;;;;;;4.85;3.85;;;9.00;87.50;;;;;;5092371;28;20189;-75
2021/12/13 10:16:28;;;;;;;6.53;4.30;;;9.00;86.90;;;;;;5092452;28;20189;-76
2021/12/13 10:18:58;;;;;;;7.03;5.72;;;9.00;86.80;;;;;;5092017;28;20190;-75
2021/12/13 10:21:30;;;;;;;10.25;6.80;;;9.00;86.30;;;;;;5091945;28;20181;-76
2021/12/13 10:24:02;;;;;;;6.70;5.43;;;9.00;86.20;;;;;;5088587;28;20206;-75
2021/12/13 10:26:35;;;;;;;6.00;5.40;;;8.90;85.90;;;;;;5091968;28;20221;-75
2021/12/13 10:29:07;;;;;;;9.07;7.43;;;8.90;86.40;;;;;;5092244;28;20203;-75
2021/12/13 10:31:38;;;;;;;7.85;7.05;;;8.90;85.20;;;;;;5092255;28;20883;-75
2021/12/13 10:34:10;;;;;;;8.45;6.85;;;8.80;85.60;;;;;;5092138;28;20254;-74
2021/12/13 10:36:41;;;;;;;8.90;7.05;;;8.80;86.40;;;;;;5091541;28;20190;-75
2021/12/13 10:39:12;;;;;;;8.27;6.15;;;8.80;86.50;;;;;;5092597;28;20186;-75
2021/12/13 10:41:43;;;;;;;9.60;7.05;;;8.80;86.90;;;;;;5091571;28;20189;-76
2021/12/13 10:44:25;;;;;;;7.43;6.32;;;8.80;87.10;;;;;;5091912;28;20683;-75
2021/12/13 10:46:55;;;;;;;7.65;6.95;;;8.70;87.00;;;;;;5091034;28;20190;-75
2021/12/13 10:49:28;;;;;;;8.20;7.40;;;8.80;87.30;;;;;;5091822;28;20189;-75
2021/12/13 10:51:59;;;;;;;8.88;8.10;;;8.80;87.50;;;;;;5091595;28;20196;-75
2021/12/13 10:54:31;;;;;;;8.90;5.15;;;8.80;87.40;;;;;;5087478;28;20190;-75
2021/12/13 10:57:05;;;;;;;6.75;4.15;;;8.80;87.70;;;;;;5090818;28;20243;-76
2021/12/13 10:59:35;;;;;;;4.30;3.60;;;8.80;87.50;;;;;;5091042;28;20189;-74
2021/12/13 11:02:08;;;;;;;5.82;3.65;;;8.90;88.00;;;;;;5091361;28;20233;-75
2021/12/13 11:04:45;;;;;;;4.55;4.00;;;8.90;87.70;;;;;;5091130;28;20213;-75
2021/12/13 11:07:13;;;;;;;4.45;3.60;;;9.00;88.00;;;;;;5088372;28;20581;-74
2021/12/13 11:09:47;;;;;;;4.65;3.22;;;9.00;88.40;;;;;;5091228;28;20204;-75
2021/12/13 11:12:19;;;;;;;3.72;2.97;;;9.20;88.60;;;;;;5091398;28;20208;-74
2021/12/13 11:14:49;;;;;;;7.82;4.13;;;9.40;88.40;;;;;;5091166;28;20197;-74
2021/12/13 11:17:22;;;;;;;4.90;3.55;;;9.60;88.10;;;;;;5091009;28;20220;-75
2021/12/13 11:19:55;;;;;;;4.50;4.00;;;9.80;88.00;;;;;;5087322;28;20242;-76
2021/12/13 11:22:25;;;;;;;4.57;4.15;;;10.10;84.80;;;;;;5091524;28;20250;-74
2021/12/13 11:24:54;;;;;;;7.40;6.10;;;10.40;84.30;;;;;;5089464;28;20221;-76
2021/12/13 11:27:24;;;;;;;7.90;4.82;;;10.90;83.80;;;;;;5091119;28;20232;-75
2021/12/13 11:29:53;;;;;;;10.30;8.85;;;11.60;83.20;;;;;;5088763;28;20246;-74
2021/12/13 11:33:05;;;;;;;10.20;7.78;;;12.20;80.50;;;;;;5090722;28;20528;-74
2021/12/13 11:36:08;;;;;;;8.20;7.40;;;12.80;78.80;;;;;;5088464;28;20378;-75
2021/12/13 11:39:23;;;;;;;8.10;6.30;;;13.40;76.40;;;;;;5067025;28;20427;-74
2021/12/13 11:42:17;;;;;;;7.60;6.27;;;14.10;71.40;;;;;;5066261;28;20554;-75
2021/12/13 11:45:03;;;;;;;6.90;6.20;;;14.20;66.40;;;;;;5057199;28;20515;-75
2021/12/13 11:47:47;;;;;;;5.50;4.57;;;13.90;66.00;;;;;;5087311;28;20435;-75
2021/12/13 11:50:48;;;;;;;4.07;3.03;;;13.90;67.50;;;;;;5090080;28;20998;-77
2021/12/13 11:53:46;;;;;;;3.80;3.43;;;13.90;65.80;;;;;;5085316;28;20512;-75
2021/12/13 11:56:46;;;;;;;3.80;3.00;;;13.80;66.60;;;;;;5089892;28;20485;-74
2021/12/13 11:59:38;;;;;;;4.37;3.00;;;13.60;66.40;;;;;;5090405;28;20478;-74
2021/12/13 12:02:16;;;;;;;4.50;3.57;;;13.40;66.50;;;;;;5091130;28;20471;-75
2021/12/13 12:05:23;;;;;;;6.40;4.50;;;13.10;65.40;;;;;;5086888;28;20557;-74
2021/12/13 12:08:19;;;;;;;5.60;4.50;;;12.80;67.30;;;;;;5074987;28;20438;-75
2021/12/13 12:11:11;;;;;;;4.60;3.50;;;12.70;68.90;;;;;;5090980;28;20488;-74
2021/12/13 12:13:50;;;;;;;6.60;4.23;;;12.50;69.20;;;;;;5089116;28;20431;-74
2021/12/13 12:16:21;;;;;;;4.80;3.90;;;12.30;69.50;;;;;;5090357;28;20840;-74
2021/12/13 12:18:50;;;;;;;6.80;3.60;;;12.20;70.00;;;;;;5090504;28;20536;-75
2021/12/13 12:21:38;;;;;;;4.43;3.80;;;12.00;70.30;;;;;;5089854;28;20455;-73
2021/12/13 12:24:07;;;;;;;4.70;4.13;;;11.80;70.10;;;;;;5091390;28;20439;-74
2021/12/13 12:26:35;;;;;;;5.22;4.40;;;11.60;71.50;;;;;;5090349;28;20465;-74
2021/12/13 12:29:09;;;;;;;5.23;4.20;;;11.50;72.50;;;;;;5087813;28;20181;-75
2021/12/13 12:31:39;;;;;;;5.03;3.88;;;11.50;73.10;;;;;;5094837;28;20530;-74
2021/12/13 12:34:07;;;;;;;6.97;5.05;;;11.40;73.30;;;;;;5095354;28;20735;-74
2021/12/13 12:36:42;;;;;;;5.13;4.40;;;11.30;74.30;;;;;;5094953;28;20280;-74
2021/12/13 12:39:50;;;;;;;4.75;4.30;;;11.20;74.30;;;;;;5095277;28;20199;-74
2021/12/13 12:42:31;;;;;;;6.25;4.47;;;11.20;75.00;;;;;;5089179;28;20254;-75
2021/12/13 12:45:16;;;;;;;6.07;5.07;;;11.10;75.20;;;;;;5093818;28;20290;-73
2021/12/13 12:48:07;;;;;;;5.72;5.13;;;11.00;74.90;;;;;;5093437;28;20660;-75
2021/12/13 12:50:38;;;;;;;7.95;4.93;;;10.80;75.40;;;;;;5094629;28;20276;-74
2021/12/13 12:53:08;;;;;;;6.40;4.60;;;10.70;76.50;;;;;;5094203;28;20197;-73
2021/12/13 12:55:40;;;;;;;5.93;4.63;;;10.60;76.30;;;;;;5089970;28;20185;-74
2021/12/13 12:58:11;;;;;;;7.13;4.38;;;10.50;76.70;;;;;;5093198;28;20193;-74
2021/12/13 13:00:41;;;;;;;5.47;4.45;;;10.40;77.00;;;;;;5093608;28;20189;-74
2021/12/13 13:03:22;;;;;;;6.38;4.30;;;10.30;77.30;;;;;;5094356;28;20188;-74
2021/12/13 13:05:50;;;;;;;7.05;4.30;;;10.20;77.80;;;;;;5094055;28;20231;-74
2021/12/13 13:08:29;;;;;;;7.00;4.63;;;10.20;78.50;;;;;;5093854;28;20186;-74
2021/12/13 13:11:26;;;;;;;7.53;4.78;;;10.10;79.50;;;;;;5093548;28;20280;-75
2021/12/13 13:13:55;;;;;;;5.45;4.25;;;10.10;80.00;;;;;;5092896;28;20262;-74
2021/12/13 13:16:33;;;;;;;6.65;5.22;;;9.90;81.60;;;;;;5093702;28;20228;-74
2021/12/13 13:19:01;;;;;;;4.53;3.97;;;9.80;82.60;;;;;;5092772;28;20266;-74
2021/12/13 13:21:28;;;;;;;5.55;3.90;;;9.70;83.70;;;;;;5092284;28;20185;-74
2021/12/13 13:24:00;;;;;;;4.43;3.38;;;9.70;83.70;;;;;;5089296;28;20189;-73
2021/12/13 13:26:30;;;;;;;4.82;3.17;;;9.70;83.80;;;;;;5091257;28;20671;-74
2021/12/13 13:29:02;;;;;;;5.65;3.40;;;9.60;85.00;;;;;;5088769;28;20189;-75
2021/12/13 13:31:37;;;;;;;3.42;2.70;;;9.60;85.30;;;;;;5093566;28;20864;-74
2021/12/13 13:34:07;;;;;;;6.10;3.67;;;9.60;85.50;;;;;;5092743;28;20280;-75
2021/12/13 13:36:41;;;;;;;5.50;2.90;;;9.50;84.80;;;;;;5092982;28;20594;-74